sensor_id;sensor_type;location;lat;lon;timestamp;P1;durP1;ratioP1;P2;durP2;ratioP2
20794;SDS011;28087;-33.874;151.240;2023-07-31T00:01:18;2.33;;;0.80;;
20794;SDS011;28087;-33.874;151.240;2023-07-31T00:04:26;4.65;;;0.77;;
20794;SDS011;28087;-33.874;151.240;2023-07-31T00:07:56;1.35;;;0.60;;
20794;SDS011;28087;-33.874;151.240;2023-07-31T00:16:00;7.88;;;0.93;;
20794;SDS011;28087;-33.874;151.240;2023-07-31T00:19:41;1.75;;;0.80;;
20794;SDS011;28087;-33.874;151.240;2023-07-31T00:24:05;3.78;;;0.90;;
20794;SDS011;28087;-33.874;151.240;2023-07-31T00:36:35;5.30;;;1.08;;
20794;SDS011;28087;-33.874;151.240;2023-07-31T00:39:47;3.38;;;1.00;;
20794;SDS011;28087;-33.874;151.240;2023-07-31T00:42:55;4.05;;;1.02;;
20794;SDS011;28087;-33.874;151.240;2023-07-31T00:45:57;3.78;;;1.05;;
20794;SDS011;28087;-33.874;151.240;2023-07-31T00:49:05;4.30;;;0.90;;
20794;SDS011;28087;-33.874;151.240;2023-07-31T00:52:13;3.53;;;0.90;;
20794;SDS011;28087;-33.874;151.240;2023-07-31T00:55:23;2.10;;;0.88;;
20794;SDS011;28087;-33.874;151.240;2023-07-31T00:58:29;2.55;;;0.90;;
20794;SDS011;28087;-33.874;151.240;2023-07-31T01:01:40;3.28;;;1.00;;
20794;SDS011;28087;-33.874;151.240;2023-07-31T01:09:07;4.10;;;0.90;;
20794;SDS011;28087;-33.874;151.240;2023-07-31T01:17:22;7.38;;;0.90;;
20794;SDS011;28087;-33.874;151.240;2023-07-31T01:25:20;2.50;;;0.90;;
20794;SDS011;28087;-33.874;151.240;2023-07-31T01:29:10;1.88;;;0.70;;
20794;SDS011;28087;-33.874;151.240;2023-07-31T01:33:23;2.75;;;0.70;;
20794;SDS011;28087;-33.874;151.240;2023-07-31T01:36:44;1.83;;;0.80;;
20794;SDS011;28087;-33.874;151.240;2023-07-31T01:39:53;1.52;;;0.70;;
20794;SDS011;28087;-33.874;151.240;2023-07-31T01:43:01;2.15;;;0.70;;
20794;SDS011;28087;-33.874;151.240;2023-07-31T01:46:09;4.05;;;0.85;;
20794;SDS011;28087;-33.874;151.240;2023-07-31T01:49:19;2.30;;;0.80;;
20794;SDS011;28087;-33.874;151.240;2023-07-31T01:52:28;2.80;;;0.63;;
20794;SDS011;28087;-33.874;151.240;2023-07-31T01:55:38;2.30;;;0.80;;
20794;SDS011;28087;-33.874;151.240;2023-07-31T01:58:46;2.55;;;0.70;;
20794;SDS011;28087;-33.874;151.240;2023-07-31T02:01:56;3.42;;;0.80;;
20794;SDS011;28087;-33.874;151.240;2023-07-31T02:05:19;1.90;;;0.80;;
20794;SDS011;28087;-33.874;151.240;2023-07-31T02:08:46;2.72;;;0.77;;
20794;SDS011;28087;-33.874;151.240;2023-07-31T02:11:54;1.90;;;0.70;;
20794;SDS011;28087;-33.874;151.240;2023-07-31T02:15:04;1.67;;;0.70;;
20794;SDS011;28087;-33.874;151.240;2023-07-31T02:18:27;1.83;;;0.80;;
20794;SDS011;28087;-33.874;151.240;2023-07-31T02:21:41;3.08;;;0.85;;
20794;SDS011;28087;-33.874;151.240;2023-07-31T02:24:48;4.00;;;0.90;;
20794;SDS011;28087;-33.874;151.240;2023-07-31T02:27:54;3.72;;;0.85;;
20794;SDS011;28087;-33.874;151.240;2023-07-31T02:31:01;2.55;;;0.82;;
20794;SDS011;28087;-33.874;151.240;2023-07-31T02:34:13;3.17;;;0.95;;
20794;SDS011;28087;-33.874;151.240;2023-07-31T02:37:24;3.63;;;1.10;;
20794;SDS011;28087;-33.874;151.240;2023-07-31T02:40:33;2.28;;;0.90;;
20794;SDS011;28087;-33.874;151.240;2023-07-31T02:43:42;3.30;;;0.93;;
20794;SDS011;28087;-33.874;151.240;2023-07-31T02:46:50;3.17;;;1.20;;
20794;SDS011;28087;-33.874;151.240;2023-07-31T02:50:02;2.72;;;0.93;;
20794;SDS011;28087;-33.874;151.240;2023-07-31T02:53:09;3.70;;;1.00;;
20794;SDS011;28087;-33.874;151.240;2023-07-31T02:56:15;2.40;;;0.85;;
20794;SDS011;28087;-33.874;151.240;2023-07-31T02:59:28;2.35;;;0.90;;
20794;SDS011;28087;-33.874;151.240;2023-07-31T03:02:36;1.42;;;0.80;;
20794;SDS011;28087;-33.874;151.240;2023-07-31T03:05:51;4.25;;;0.93;;
20794;SDS011;28087;-33.874;151.240;2023-07-31T03:09:00;3.42;;;1.05;;
20794;SDS011;28087;-33.874;151.240;2023-07-31T03:12:14;8.07;;;0.95;;
20794;SDS011;28087;-33.874;151.240;2023-07-31T03:15:42;3.35;;;1.00;;
20794;SDS011;28087;-33.874;151.240;2023-07-31T03:18:54;2.65;;;0.90;;
20794;SDS011;28087;-33.874;151.240;2023-07-31T03:22:13;3.08;;;0.93;;
20794;SDS011;28087;-33.874;151.240;2023-07-31T03:25:25;3.45;;;1.05;;
20794;SDS011;28087;-33.874;151.240;2023-07-31T03:28:43;2.25;;;0.90;;
20794;SDS011;28087;-33.874;151.240;2023-07-31T03:31:56;4.68;;;1.00;;
20794;SDS011;28087;-33.874;151.240;2023-07-31T03:35:04;3.22;;;0.88;;
20794;SDS011;28087;-33.874;151.240;2023-07-31T03:38:15;3.55;;;0.80;;
20794;SDS011;28087;-33.874;151.240;2023-07-31T03:41:34;1.95;;;0.82;;
20794;SDS011;28087;-33.874;151.240;2023-07-31T03:44:43;1.48;;;0.75;;
20794;SDS011;28087;-33.874;151.240;2023-07-31T03:47:53;3.45;;;1.00;;
20794;SDS011;28087;-33.874;151.240;2023-07-31T03:51:08;7.88;;;1.10;;
20794;SDS011;28087;-33.874;151.240;2023-07-31T03:54:19;2.33;;;0.90;;
20794;SDS011;28087;-33.874;151.240;2023-07-31T03:57:28;5.60;;;0.95;;
20794;SDS011;28087;-33.874;151.240;2023-07-31T04:00:34;4.93;;;0.90;;
20794;SDS011;28087;-33.874;151.240;2023-07-31T04:03:40;4.93;;;1.00;;
20794;SDS011;28087;-33.874;151.240;2023-07-31T04:06:50;2.50;;;0.98;;
20794;SDS011;28087;-33.874;151.240;2023-07-31T04:10:03;3.08;;;0.98;;
20794;SDS011;28087;-33.874;151.240;2023-07-31T04:13:13;4.32;;;1.10;;
20794;SDS011;28087;-33.874;151.240;2023-07-31T04:16:19;3.40;;;0.80;;
20794;SDS011;28087;-33.874;151.240;2023-07-31T04:19:27;2.97;;;1.00;;
20794;SDS011;28087;-33.874;151.240;2023-07-31T04:22:35;1.88;;;0.80;;
20794;SDS011;28087;-33.874;151.240;2023-07-31T04:25:47;2.33;;;0.80;;
20794;SDS011;28087;-33.874;151.240;2023-07-31T04:28:56;1.85;;;0.90;;
20794;SDS011;28087;-33.874;151.240;2023-07-31T04:32:05;3.45;;;0.80;;
20794;SDS011;28087;-33.874;151.240;2023-07-31T04:35:15;2.88;;;0.80;;
20794;SDS011;28087;-33.874;151.240;2023-07-31T04:38:33;4.65;;;0.90;;
20794;SDS011;28087;-33.874;151.240;2023-07-31T04:42:12;4.15;;;1.10;;
20794;SDS011;28087;-33.874;151.240;2023-07-31T04:45:23;2.90;;;0.90;;
20794;SDS011;28087;-33.874;151.240;2023-07-31T04:48:34;4.95;;;1.00;;
20794;SDS011;28087;-33.874;151.240;2023-07-31T04:51:46;2.80;;;1.00;;
20794;SDS011;28087;-33.874;151.240;2023-07-31T04:54:53;4.30;;;1.10;;
20794;SDS011;28087;-33.874;151.240;2023-07-31T04:58:01;3.40;;;0.90;;
20794;SDS011;28087;-33.874;151.240;2023-07-31T05:01:09;3.67;;;1.10;;
20794;SDS011;28087;-33.874;151.240;2023-07-31T05:04:17;4.35;;;0.80;;
20794;SDS011;28087;-33.874;151.240;2023-07-31T05:07:26;4.40;;;1.40;;
20794;SDS011;28087;-33.874;151.240;2023-07-31T05:10:34;4.88;;;0.98;;
20794;SDS011;28087;-33.874;151.240;2023-07-31T05:13:46;5.90;;;1.20;;
20794;SDS011;28087;-33.874;151.240;2023-07-31T05:16:54;4.07;;;1.20;;
20794;SDS011;28087;-33.874;151.240;2023-07-31T05:20:01;3.50;;;1.10;;
20794;SDS011;28087;-33.874;151.240;2023-07-31T05:23:20;5.20;;;1.10;;
20794;SDS011;28087;-33.874;151.240;2023-07-31T05:26:30;4.25;;;1.02;;
20794;SDS011;28087;-33.874;151.240;2023-07-31T05:29:40;3.42;;;1.00;;
20794;SDS011;28087;-33.874;151.240;2023-07-31T05:32:59;3.65;;;1.00;;
20794;SDS011;28087;-33.874;151.240;2023-07-31T05:39:45;2.88;;;0.90;;
20794;SDS011;28087;-33.874;151.240;2023-07-31T05:42:59;3.67;;;0.95;;
20794;SDS011;28087;-33.874;151.240;2023-07-31T05:46:13;3.55;;;1.00;;
20794;SDS011;28087;-33.874;151.240;2023-07-31T05:49:25;6.28;;;1.23;;
20794;SDS011;28087;-33.874;151.240;2023-07-31T05:52:39;5.43;;;1.40;;
20794;SDS011;28087;-33.874;151.240;2023-07-31T05:55:48;8.57;;;1.30;;
20794;SDS011;28087;-33.874;151.240;2023-07-31T05:58:59;4.15;;;1.08;;
20794;SDS011;28087;-33.874;151.240;2023-07-31T06:02:10;9.15;;;1.40;;
20794;SDS011;28087;-33.874;151.240;2023-07-31T06:05:21;4.68;;;1.30;;
20794;SDS011;28087;-33.874;151.240;2023-07-31T06:08:29;5.93;;;1.08;;
20794;SDS011;28087;-33.874;151.240;2023-07-31T06:11:41;5.07;;;1.20;;
20794;SDS011;28087;-33.874;151.240;2023-07-31T06:14:50;6.75;;;1.30;;
20794;SDS011;28087;-33.874;151.240;2023-07-31T06:17:58;5.93;;;1.30;;
20794;SDS011;28087;-33.874;151.240;2023-07-31T06:21:10;3.67;;;1.02;;
20794;SDS011;28087;-33.874;151.240;2023-07-31T06:24:17;5.07;;;1.10;;
20794;SDS011;28087;-33.874;151.240;2023-07-31T06:27:24;2.47;;;0.90;;
20794;SDS011;28087;-33.874;151.240;2023-07-31T06:30:34;4.00;;;0.90;;
20794;SDS011;28087;-33.874;151.240;2023-07-31T06:33:45;4.60;;;0.90;;
20794;SDS011;28087;-33.874;151.240;2023-07-31T06:36:54;2.58;;;0.70;;
20794;SDS011;28087;-33.874;151.240;2023-07-31T06:40:00;2.08;;;0.70;;
20794;SDS011;28087;-33.874;151.240;2023-07-31T06:43:08;2.65;;;0.90;;
20794;SDS011;28087;-33.874;151.240;2023-07-31T06:46:16;2.35;;;0.85;;
20794;SDS011;28087;-33.874;151.240;2023-07-31T06:49:28;3.33;;;1.00;;
20794;SDS011;28087;-33.874;151.240;2023-07-31T06:52:41;4.03;;;0.80;;
20794;SDS011;28087;-33.874;151.240;2023-07-31T06:55:57;4.50;;;0.93;;
20794;SDS011;28087;-33.874;151.240;2023-07-31T06:59:09;4.20;;;1.00;;
20794;SDS011;28087;-33.874;151.240;2023-07-31T07:02:29;3.72;;;1.30;;
20794;SDS011;28087;-33.874;151.240;2023-07-31T07:05:44;7.35;;;1.30;;
20794;SDS011;28087;-33.874;151.240;2023-07-31T07:09:01;4.20;;;1.40;;
20794;SDS011;28087;-33.874;151.240;2023-07-31T07:12:25;3.22;;;1.27;;
20794;SDS011;28087;-33.874;151.240;2023-07-31T07:15:35;7.18;;;1.38;;
20794;SDS011;28087;-33.874;151.240;2023-07-31T07:18:36;5.20;;;1.30;;
20794;SDS011;28087;-33.874;151.240;2023-07-31T07:21:55;2.95;;;0.90;;
20794;SDS011;28087;-33.874;151.240;2023-07-31T07:25:01;2.88;;;1.00;;
20794;SDS011;28087;-33.874;151.240;2023-07-31T07:28:09;3.03;;;1.10;;
20794;SDS011;28087;-33.874;151.240;2023-07-31T07:31:17;5.32;;;1.33;;
20794;SDS011;28087;-33.874;151.240;2023-07-31T07:34:26;5.10;;;1.15;;
20794;SDS011;28087;-33.874;151.240;2023-07-31T07:37:37;6.15;;;1.60;;
20794;SDS011;28087;-33.874;151.240;2023-07-31T07:40:53;5.40;;;1.65;;
20794;SDS011;28087;-33.874;151.240;2023-07-31T07:44:01;5.25;;;1.55;;
20794;SDS011;28087;-33.874;151.240;2023-07-31T07:47:08;5.75;;;2.25;;
20794;SDS011;28087;-33.874;151.240;2023-07-31T07:50:16;4.57;;;1.73;;
20794;SDS011;28087;-33.874;151.240;2023-07-31T07:53:29;5.55;;;1.90;;
20794;SDS011;28087;-33.874;151.240;2023-07-31T07:56:37;6.05;;;1.85;;
20794;SDS011;28087;-33.874;151.240;2023-07-31T07:59:48;4.68;;;1.65;;
20794;SDS011;28087;-33.874;151.240;2023-07-31T08:02:59;7.28;;;1.52;;
20794;SDS011;28087;-33.874;151.240;2023-07-31T08:06:14;6.35;;;1.48;;
20794;SDS011;28087;-33.874;151.240;2023-07-31T08:09:29;5.25;;;1.67;;
20794;SDS011;28087;-33.874;151.240;2023-07-31T08:12:37;4.93;;;1.35;;
20794;SDS011;28087;-33.874;151.240;2023-07-31T08:15:43;6.15;;;1.30;;
20794;SDS011;28087;-33.874;151.240;2023-07-31T08:18:57;5.88;;;1.30;;
20794;SDS011;28087;-33.874;151.240;2023-07-31T08:22:05;5.32;;;1.33;;
20794;SDS011;28087;-33.874;151.240;2023-07-31T08:25:17;4.18;;;1.10;;
20794;SDS011;28087;-33.874;151.240;2023-07-31T08:28:24;7.68;;;1.33;;
20794;SDS011;28087;-33.874;151.240;2023-07-31T08:31:35;5.03;;;1.38;;
20794;SDS011;28087;-33.874;151.240;2023-07-31T08:34:47;6.82;;;1.50;;
20794;SDS011;28087;-33.874;151.240;2023-07-31T08:37:58;5.50;;;1.42;;
20794;SDS011;28087;-33.874;151.240;2023-07-31T08:41:13;4.22;;;1.33;;
20794;SDS011;28087;-33.874;151.240;2023-07-31T08:44:31;7.07;;;1.70;;
20794;SDS011;28087;-33.874;151.240;2023-07-31T08:47:45;7.03;;;1.40;;
20794;SDS011;28087;-33.874;151.240;2023-07-31T08:50:58;10.15;;;1.60;;
20794;SDS011;28087;-33.874;151.240;2023-07-31T08:54:27;7.15;;;1.77;;
20794;SDS011;28087;-33.874;151.240;2023-07-31T08:57:54;6.13;;;2.45;;
20794;SDS011;28087;-33.874;151.240;2023-07-31T09:01:33;9.25;;;2.30;;
20794;SDS011;28087;-33.874;151.240;2023-07-31T09:04:49;8.27;;;3.13;;
20794;SDS011;28087;-33.874;151.240;2023-07-31T09:08:21;10.13;;;3.75;;
20794;SDS011;28087;-33.874;151.240;2023-07-31T09:12:08;13.13;;;3.88;;
20794;SDS011;28087;-33.874;151.240;2023-07-31T09:19:01;7.25;;;3.05;;
20794;SDS011;28087;-33.874;151.240;2023-07-31T09:22:12;7.07;;;2.47;;
20794;SDS011;28087;-33.874;151.240;2023-07-31T09:25:31;14.32;;;2.70;;
20794;SDS011;28087;-33.874;151.240;2023-07-31T09:28:40;9.23;;;2.78;;
20794;SDS011;28087;-33.874;151.240;2023-07-31T09:31:50;8.27;;;3.05;;
20794;SDS011;28087;-33.874;151.240;2023-07-31T09:34:58;6.57;;;2.83;;
20794;SDS011;28087;-33.874;151.240;2023-07-31T09:38:06;8.18;;;3.63;;
20794;SDS011;28087;-33.874;151.240;2023-07-31T09:41:14;8.93;;;3.60;;
20794;SDS011;28087;-33.874;151.240;2023-07-31T09:44:20;5.93;;;2.90;;
20794;SDS011;28087;-33.874;151.240;2023-07-31T09:47:29;9.20;;;2.50;;
20794;SDS011;28087;-33.874;151.240;2023-07-31T09:50:47;5.75;;;2.40;;
20794;SDS011;28087;-33.874;151.240;2023-07-31T09:53:55;6.75;;;2.33;;
20794;SDS011;28087;-33.874;151.240;2023-07-31T09:57:02;10.02;;;3.42;;
20794;SDS011;28087;-33.874;151.240;2023-07-31T10:00:09;8.88;;;2.80;;
20794;SDS011;28087;-33.874;151.240;2023-07-31T10:03:20;6.47;;;2.10;;
20794;SDS011;28087;-33.874;151.240;2023-07-31T10:06:30;4.43;;;1.90;;
20794;SDS011;28087;-33.874;151.240;2023-07-31T10:09:40;6.70;;;1.80;;
20794;SDS011;28087;-33.874;151.240;2023-07-31T10:12:52;5.50;;;2.10;;
20794;SDS011;28087;-33.874;151.240;2023-07-31T10:15:59;7.75;;;2.70;;
20794;SDS011;28087;-33.874;151.240;2023-07-31T10:19:10;6.45;;;2.70;;
20794;SDS011;28087;-33.874;151.240;2023-07-31T10:22:21;5.55;;;2.45;;
20794;SDS011;28087;-33.874;151.240;2023-07-31T10:25:27;7.72;;;3.08;;
20794;SDS011;28087;-33.874;151.240;2023-07-31T10:28:34;6.88;;;2.88;;
20794;SDS011;28087;-33.874;151.240;2023-07-31T10:31:44;9.18;;;3.40;;
20794;SDS011;28087;-33.874;151.240;2023-07-31T10:35:10;6.93;;;3.22;;
20794;SDS011;28087;-33.874;151.240;2023-07-31T10:38:32;7.45;;;3.40;;
20794;SDS011;28087;-33.874;151.240;2023-07-31T10:45:14;8.32;;;4.15;;
20794;SDS011;28087;-33.874;151.240;2023-07-31T10:48:37;7.55;;;4.10;;
20794;SDS011;28087;-33.874;151.240;2023-07-31T10:51:50;10.05;;;4.22;;
20794;SDS011;28087;-33.874;151.240;2023-07-31T10:55:16;9.07;;;4.28;;
20794;SDS011;28087;-33.874;151.240;2023-07-31T10:58:38;10.57;;;3.70;;
20794;SDS011;28087;-33.874;151.240;2023-07-31T11:01:52;8.93;;;3.92;;
20794;SDS011;28087;-33.874;151.240;2023-07-31T11:05:06;8.10;;;3.28;;
20794;SDS011;28087;-33.874;151.240;2023-07-31T11:08:14;7.25;;;3.38;;
20794;SDS011;28087;-33.874;151.240;2023-07-31T11:11:24;7.60;;;3.60;;
20794;SDS011;28087;-33.874;151.240;2023-07-31T11:14:30;8.80;;;3.42;;
20794;SDS011;28087;-33.874;151.240;2023-07-31T11:17:38;9.82;;;3.70;;
20794;SDS011;28087;-33.874;151.240;2023-07-31T11:20:46;7.75;;;3.58;;
20794;SDS011;28087;-33.874;151.240;2023-07-31T11:24:06;7.25;;;3.38;;
20794;SDS011;28087;-33.874;151.240;2023-07-31T11:27:45;8.85;;;3.20;;
20794;SDS011;28087;-33.874;151.240;2023-07-31T11:30:59;5.63;;;2.50;;
20794;SDS011;28087;-33.874;151.240;2023-07-31T11:34:11;5.90;;;2.72;;
20794;SDS011;28087;-33.874;151.240;2023-07-31T11:37:19;5.32;;;2.40;;
20794;SDS011;28087;-33.874;151.240;2023-07-31T11:40:41;7.03;;;2.45;;
20794;SDS011;28087;-33.874;151.240;2023-07-31T11:47:22;4.88;;;2.10;;
20794;SDS011;28087;-33.874;151.240;2023-07-31T11:50:33;4.43;;;2.00;;
20794;SDS011;28087;-33.874;151.240;2023-07-31T11:53:44;4.70;;;2.08;;
20794;SDS011;28087;-33.874;151.240;2023-07-31T11:56:59;4.60;;;2.10;;
20794;SDS011;28087;-33.874;151.240;2023-07-31T12:03:39;6.10;;;2.35;;
20794;SDS011;28087;-33.874;151.240;2023-07-31T12:06:49;5.45;;;2.20;;
20794;SDS011;28087;-33.874;151.240;2023-07-31T12:10:09;5.93;;;2.03;;
20794;SDS011;28087;-33.874;151.240;2023-07-31T12:13:30;5.15;;;2.10;;
20794;SDS011;28087;-33.874;151.240;2023-07-31T12:16:41;4.28;;;1.90;;
20794;SDS011;28087;-33.874;151.240;2023-07-31T12:19:58;4.55;;;1.95;;
20794;SDS011;28087;-33.874;151.240;2023-07-31T12:23:25;5.22;;;1.98;;
20794;SDS011;28087;-33.874;151.240;2023-07-31T12:26:50;4.50;;;1.67;;
20794;SDS011;28087;-33.874;151.240;2023-07-31T12:30:34;4.57;;;1.60;;
20794;SDS011;28087;-33.874;151.240;2023-07-31T12:33:49;4.22;;;1.60;;
20794;SDS011;28087;-33.874;151.240;2023-07-31T12:37:08;4.13;;;1.55;;
20794;SDS011;28087;-33.874;151.240;2023-07-31T12:40:20;5.28;;;1.48;;
20794;SDS011;28087;-33.874;151.240;2023-07-31T12:43:43;5.82;;;1.70;;
20794;SDS011;28087;-33.874;151.240;2023-07-31T12:47:01;3.88;;;1.58;;
20794;SDS011;28087;-33.874;151.240;2023-07-31T12:50:12;5.45;;;1.60;;
20794;SDS011;28087;-33.874;151.240;2023-07-31T12:53:41;3.85;;;1.52;;
20794;SDS011;28087;-33.874;151.240;2023-07-31T12:57:06;4.25;;;1.70;;
20794;SDS011;28087;-33.874;151.240;2023-07-31T13:00:23;4.22;;;1.67;;
20794;SDS011;28087;-33.874;151.240;2023-07-31T13:03:55;4.88;;;1.77;;
20794;SDS011;28087;-33.874;151.240;2023-07-31T13:07:04;4.82;;;1.60;;
20794;SDS011;28087;-33.874;151.240;2023-07-31T13:10:23;5.85;;;1.73;;
20794;SDS011;28087;-33.874;151.240;2023-07-31T13:13:43;6.10;;;1.98;;
20794;SDS011;28087;-33.874;151.240;2023-07-31T13:16:57;5.93;;;1.90;;
20794;SDS011;28087;-33.874;151.240;2023-07-31T13:20:08;4.10;;;1.77;;
20794;SDS011;28087;-33.874;151.240;2023-07-31T13:23:16;4.13;;;1.42;;
20794;SDS011;28087;-33.874;151.240;2023-07-31T13:26:30;4.80;;;1.67;;
20794;SDS011;28087;-33.874;151.240;2023-07-31T13:29:54;4.55;;;1.50;;
20794;SDS011;28087;-33.874;151.240;2023-07-31T13:33:10;5.07;;;1.40;;
20794;SDS011;28087;-33.874;151.240;2023-07-31T13:36:29;3.03;;;1.27;;
20794;SDS011;28087;-33.874;151.240;2023-07-31T13:39:49;3.60;;;1.30;;
20794;SDS011;28087;-33.874;151.240;2023-07-31T13:43:17;4.80;;;1.50;;
20794;SDS011;28087;-33.874;151.240;2023-07-31T13:46:25;4.65;;;1.40;;
20794;SDS011;28087;-33.874;151.240;2023-07-31T13:49:40;3.53;;;1.20;;
20794;SDS011;28087;-33.874;151.240;2023-07-31T13:52:55;3.83;;;1.15;;
20794;SDS011;28087;-33.874;151.240;2023-07-31T13:56:34;6.80;;;1.40;;
20794;SDS011;28087;-33.874;151.240;2023-07-31T14:00:02;5.32;;;1.30;;
20794;SDS011;28087;-33.874;151.240;2023-07-31T14:03:33;4.38;;;1.20;;
20794;SDS011;28087;-33.874;151.240;2023-07-31T14:06:44;4.65;;;1.20;;
20794;SDS011;28087;-33.874;151.240;2023-07-31T14:10:15;3.20;;;1.20;;
20794;SDS011;28087;-33.874;151.240;2023-07-31T14:13:29;5.80;;;1.30;;
20794;SDS011;28087;-33.874;151.240;2023-07-31T14:17:08;5.57;;;1.30;;
20794;SDS011;28087;-33.874;151.240;2023-07-31T14:20:32;3.80;;;1.23;;
20794;SDS011;28087;-33.874;151.240;2023-07-31T14:23:48;4.20;;;1.20;;
20794;SDS011;28087;-33.874;151.240;2023-07-31T14:26:58;3.15;;;1.10;;
20794;SDS011;28087;-33.874;151.240;2023-07-31T14:30:07;2.40;;;1.00;;
20794;SDS011;28087;-33.874;151.240;2023-07-31T14:33:19;2.78;;;1.00;;
20794;SDS011;28087;-33.874;151.240;2023-07-31T14:36:29;2.85;;;1.13;;
20794;SDS011;28087;-33.874;151.240;2023-07-31T14:39:40;6.07;;;1.25;;
20794;SDS011;28087;-33.874;151.240;2023-07-31T14:43:01;5.68;;;1.27;;
20794;SDS011;28087;-33.874;151.240;2023-07-31T14:46:26;3.28;;;1.27;;
20794;SDS011;28087;-33.874;151.240;2023-07-31T14:49:36;3.60;;;1.10;;
20794;SDS011;28087;-33.874;151.240;2023-07-31T14:52:36;4.55;;;1.30;;
20794;SDS011;28087;-33.874;151.240;2023-07-31T14:55:44;4.05;;;1.20;;
20794;SDS011;28087;-33.874;151.240;2023-07-31T14:58:52;2.42;;;0.93;;
20794;SDS011;28087;-33.874;151.240;2023-07-31T15:02:00;3.35;;;1.10;;
20794;SDS011;28087;-33.874;151.240;2023-07-31T15:05:20;3.17;;;1.00;;
20794;SDS011;28087;-33.874;151.240;2023-07-31T15:08:36;3.33;;;1.02;;
20794;SDS011;28087;-33.874;151.240;2023-07-31T15:11:50;4.70;;;1.05;;
20794;SDS011;28087;-33.874;151.240;2023-07-31T15:15:12;2.78;;;0.90;;
20794;SDS011;28087;-33.874;151.240;2023-07-31T15:18:41;3.15;;;1.20;;
20794;SDS011;28087;-33.874;151.240;2023-07-31T15:22:19;3.95;;;1.35;;
20794;SDS011;28087;-33.874;151.240;2023-07-31T15:25:47;4.28;;;1.10;;
20794;SDS011;28087;-33.874;151.240;2023-07-31T15:29:19;4.35;;;1.10;;
20794;SDS011;28087;-33.874;151.240;2023-07-31T15:36:20;3.95;;;1.00;;
20794;SDS011;28087;-33.874;151.240;2023-07-31T15:39:34;4.68;;;1.10;;
20794;SDS011;28087;-33.874;151.240;2023-07-31T15:45:02;5.43;;;1.20;;
20794;SDS011;28087;-33.874;151.240;2023-07-31T15:46:51;4.07;;;1.00;;
20794;SDS011;28087;-33.874;151.240;2023-07-31T15:50:31;4.18;;;1.42;;
20794;SDS011;28087;-33.874;151.240;2023-07-31T15:54:19;5.20;;;1.30;;
20794;SDS011;28087;-33.874;151.240;2023-07-31T15:57:30;4.72;;;1.20;;
20794;SDS011;28087;-33.874;151.240;2023-07-31T16:01:00;2.75;;;1.02;;
20794;SDS011;28087;-33.874;151.240;2023-07-31T16:04:29;4.10;;;1.15;;
20794;SDS011;28087;-33.874;151.240;2023-07-31T16:08:00;4.30;;;1.00;;
20794;SDS011;28087;-33.874;151.240;2023-07-31T16:11:08;4.05;;;1.15;;
20794;SDS011;28087;-33.874;151.240;2023-07-31T16:18:17;2.90;;;1.02;;
20794;SDS011;28087;-33.874;151.240;2023-07-31T16:21:45;5.47;;;1.00;;
20794;SDS011;28087;-33.874;151.240;2023-07-31T16:25:17;3.78;;;1.10;;
20794;SDS011;28087;-33.874;151.240;2023-07-31T16:28:44;2.47;;;0.90;;
20794;SDS011;28087;-33.874;151.240;2023-07-31T16:31:53;2.40;;;0.93;;
20794;SDS011;28087;-33.874;151.240;2023-07-31T16:35:29;4.05;;;0.93;;
20794;SDS011;28087;-33.874;151.240;2023-07-31T16:38:37;3.78;;;1.00;;
20794;SDS011;28087;-33.874;151.240;2023-07-31T16:41:43;3.90;;;1.10;;
20794;SDS011;28087;-33.874;151.240;2023-07-31T16:44:57;3.95;;;1.05;;
20794;SDS011;28087;-33.874;151.240;2023-07-31T16:48:04;3.05;;;1.00;;
20794;SDS011;28087;-33.874;151.240;2023-07-31T16:51:15;4.60;;;1.10;;
20794;SDS011;28087;-33.874;151.240;2023-07-31T16:54:23;3.15;;;1.00;;
20794;SDS011;28087;-33.874;151.240;2023-07-31T16:57:30;3.50;;;1.00;;
20794;SDS011;28087;-33.874;151.240;2023-07-31T17:00:40;4.05;;;1.00;;
20794;SDS011;28087;-33.874;151.240;2023-07-31T17:03:47;4.65;;;1.00;;
20794;SDS011;28087;-33.874;151.240;2023-07-31T17:10:52;2.83;;;0.88;;
20794;SDS011;28087;-33.874;151.240;2023-07-31T17:14:09;3.58;;;0.98;;
20794;SDS011;28087;-33.874;151.240;2023-07-31T17:21:27;3.05;;;0.90;;
20794;SDS011;28087;-33.874;151.240;2023-07-31T17:24:39;4.28;;;1.00;;
20794;SDS011;28087;-33.874;151.240;2023-07-31T17:27:47;4.57;;;1.00;;
20794;SDS011;28087;-33.874;151.240;2023-07-31T17:30:58;2.97;;;0.88;;
20794;SDS011;28087;-33.874;151.240;2023-07-31T17:34:07;4.72;;;0.95;;
20794;SDS011;28087;-33.874;151.240;2023-07-31T17:37:15;3.90;;;0.93;;
20794;SDS011;28087;-33.874;151.240;2023-07-31T17:40:22;3.90;;;0.90;;
20794;SDS011;28087;-33.874;151.240;2023-07-31T17:43:32;2.70;;;0.77;;
20794;SDS011;28087;-33.874;151.240;2023-07-31T17:46:39;3.00;;;0.90;;
20794;SDS011;28087;-33.874;151.240;2023-07-31T17:49:51;4.03;;;0.85;;
20794;SDS011;28087;-33.874;151.240;2023-07-31T17:53:02;3.03;;;0.80;;
20794;SDS011;28087;-33.874;151.240;2023-07-31T17:56:13;2.58;;;0.77;;
20794;SDS011;28087;-33.874;151.240;2023-07-31T17:59:22;3.28;;;0.82;;
20794;SDS011;28087;-33.874;151.240;2023-07-31T18:02:28;3.92;;;0.90;;
20794;SDS011;28087;-33.874;151.240;2023-07-31T18:05:41;1.60;;;0.63;;
20794;SDS011;28087;-33.874;151.240;2023-07-31T18:09:09;3.47;;;0.90;;
20794;SDS011;28087;-33.874;151.240;2023-07-31T18:12:29;2.88;;;0.80;;
20794;SDS011;28087;-33.874;151.240;2023-07-31T18:15:45;3.70;;;0.90;;
20794;SDS011;28087;-33.874;151.240;2023-07-31T18:18:58;4.60;;;1.00;;
20794;SDS011;28087;-33.874;151.240;2023-07-31T18:22:05;3.65;;;0.95;;
20794;SDS011;28087;-33.874;151.240;2023-07-31T18:25:14;4.32;;;1.00;;
20794;SDS011;28087;-33.874;151.240;2023-07-31T18:28:19;3.70;;;1.10;;
20794;SDS011;28087;-33.874;151.240;2023-07-31T18:31:40;3.15;;;1.13;;
20794;SDS011;28087;-33.874;151.240;2023-07-31T18:34:51;3.25;;;1.00;;
20794;SDS011;28087;-33.874;151.240;2023-07-31T18:37:59;5.45;;;1.00;;
20794;SDS011;28087;-33.874;151.240;2023-07-31T18:41:12;4.07;;;0.95;;
20794;SDS011;28087;-33.874;151.240;2023-07-31T18:44:20;4.05;;;0.90;;
20794;SDS011;28087;-33.874;151.240;2023-07-31T18:47:30;5.15;;;1.00;;
20794;SDS011;28087;-33.874;151.240;2023-07-31T18:50:40;4.97;;;0.90;;
20794;SDS011;28087;-33.874;151.240;2023-07-31T18:53:48;3.78;;;0.90;;
20794;SDS011;28087;-33.874;151.240;2023-07-31T18:56:54;5.40;;;1.13;;
20794;SDS011;28087;-33.874;151.240;2023-07-31T19:00:03;4.93;;;0.95;;
20794;SDS011;28087;-33.874;151.240;2023-07-31T19:03:16;3.15;;;0.90;;
20794;SDS011;28087;-33.874;151.240;2023-07-31T19:06:30;3.47;;;0.88;;
20794;SDS011;28087;-33.874;151.240;2023-07-31T19:09:35;3.97;;;1.00;;
20794;SDS011;28087;-33.874;151.240;2023-07-31T19:13:03;2.80;;;0.90;;
20794;SDS011;28087;-33.874;151.240;2023-07-31T19:16:10;3.72;;;0.88;;
20794;SDS011;28087;-33.874;151.240;2023-07-31T19:19:22;6.32;;;1.10;;
20794;SDS011;28087;-33.874;151.240;2023-07-31T19:22:37;4.15;;;1.20;;
20794;SDS011;28087;-33.874;151.240;2023-07-31T19:25:47;3.80;;;1.00;;
20794;SDS011;28087;-33.874;151.240;2023-07-31T19:29:04;3.90;;;1.00;;
20794;SDS011;28087;-33.874;151.240;2023-07-31T19:32:27;3.58;;;0.90;;
20794;SDS011;28087;-33.874;151.240;2023-07-31T19:40:03;3.33;;;1.00;;
20794;SDS011;28087;-33.874;151.240;2023-07-31T19:47:08;5.13;;;0.90;;
20794;SDS011;28087;-33.874;151.240;2023-07-31T19:50:23;5.22;;;1.13;;